EDT,Max TemperatureF,Mean TemperatureF,Min TemperatureF,Max Dew PointF,MeanDew PointF,Min DewpointF,Max Humidity, Mean Humidity, Min Humidity, Max Sea Level PressureIn, Mean Sea Level PressureIn, Min Sea Level PressureIn, Max VisibilityMiles, Mean VisibilityMiles, Min VisibilityMiles, Max Wind SpeedMPH, Mean Wind SpeedMPH, Max Gust SpeedMPH,PrecipitationIn, CloudCover, Events, WindDirDegrees
2013-4-1,38,32,26,30,18,11,69,55,41,30.16,30.00,29.79,10,10,4,26,12,36,T,5,Snow,313
2013-4-2,41,31,20,20,15,9,84,57,29,30.30,30.22,30.16,10,10,10,23,10,30,0.00,2,,281
2013-4-3,46,35,23,19,13,8,81,52,22,30.47,30.39,30.30,10,10,10,21,5,24,0.00,0,,305
2013-4-4,57,41,24,25,17,12,75,48,20,30.37,30.16,29.96,10,10,10,16,6,21,0.00,1,,211
2013-4-5,51,43,34,27,20,13,64,43,22,30.22,30.13,29.96,10,10,8,15,8,23,0.00,0,,347
2013-4-6,61,49,36,36,26,21,64,46,28,30.19,30.01,29.70,10,10,10,23,11,32,T,5,Rain,152
2013-4-7,59,48,37,46,37,31,86,68,50,30.02,29.85,29.61,10,9,6,31,12,49,T,5,Rain,285
2013-4-8,65,51,37,53,40,30,93,77,60,30.01,29.86,29.68,10,6,2,35,11,51,0.10,5,Rain-Thunderstorm,151
2013-4-9,65,53,40,52,43,39,100,80,60,30.06,29.99,29.84,10,4,0,14,6,20,0.01,8,Fog-Rain,84
2013-4-10,45,42,39,43,39,37,100,93,86,29.98,29.93,29.88,10,7,2,29,9,36,0.41,8,Rain-Thunderstorm,58
2013-4-11,41,39,37,39,37,36,100,96,92,29.90,29.78,29.62,10,4,2,23,11,31,1.51,8,Rain-Thunderstorm,78
2013-4-12,46,42,37,37,35,30,100,81,62,29.82,29.65,29.56,10,6,1,21,10,28,0.11,8,Rain,236
2013-4-13,43,40,36,33,28,24,85,68,51,30.01,29.89,29.81,10,10,8,25,12,32,T,8,Rain-Snow,260
2013-4-14,56,44,31,41,33,26,82,67,51,30.08,29.99,29.85,10,10,6,18,8,26,0.01,4,Snow,116
2013-4-15,66,56,45,56,48,38,93,79,65,29.94,29.88,29.83,10,8,2,22,11,28,0.45,5,Rain,183
2013-4-16,56,49,41,45,39,29,93,66,38,30.25,30.06,29.94,10,8,2,17,7,22,0.21,6,Rain,316
2013-4-17,57,50,42,46,40,32,93,72,50,30.31,30.15,29.94,10,7,1,29,9,36,0.66,7,Rain-Thunderstorm,82
2013-4-18,72,60,48,63,54,46,97,85,73,29.92,29.70,29.49,10,5,1,33,13,45,1.16,7,Rain-Thunderstorm,157
2013-4-19,59,46,33,58,37,28,96,83,70,29.82,29.62,29.45,10,6,1,30,17,39,0.35,8,Rain-Snow,244
2013-4-20,40,34,28,30,21,11,89,61,32,30.47,30.15,29.84,10,9,2,22,10,30,0.01,6,Snow,299
2013-4-21,51,37,22,32,24,17,92,65,38,30.60,30.52,30.44,10,10,7,15,7,23,0.00,0,,142
2013-4-22,64,48,32,33,29,26,82,54,25,30.43,30.29,30.15,10,10,10,16,6,20,0.00,0,,145
2013-4-23,66,55,43,54,45,33,100,74,48,30.15,29.95,29.84,10,6,2,20,9,25,0.49,6,Rain,217
2013-4-24,45,40,35,41,32,22,96,68,40,30.16,29.96,29.83,10,8,4,22,12,31,0.06,6,Rain-Snow,318
2013-4-25,51,43,34,39,31,26,85,62,38,30.37,30.20,30.08,10,9,3,24,11,32,0.10,4,Rain,239
2013-4-26,63,48,32,37,33,29,89,63,36,30.44,30.38,30.32,10,10,9,21,9,26,0.00,0,,177
2013-4-27,69,54,38,39,36,31,85,54,23,30.35,30.23,30.07,10,10,10,15,6,20,0.00,0,,157
2013-4-28,59,55,50,54,48,37,100,76,51,30.06,29.91,29.84,10,7,2,9,3,13,0.10,7,Rain,105
2013-4-29,73,58,42,57,49,42,100,73,46,29.95,29.90,29.86,10,5,0,15,6,18,0.00,4,Fog,193
2013-4-30,78,67,55,60,55,51,93,71,48,30.01,29.94,29.89,10,8,0,22,11,29,0.51,3,Fog-Rain-Thunderstorm,158